Time;durP1;ratioP1;P1;durP2;ratioP2;P2;SDS_P1;SDS_P2;PMS_P1;PMS_P2;Temp;Humidity;BMP_temperature;BMP_pressure;BME280_temperature;BME280_humidity;BME280_pressure;Samples;Min_cycle;Max_cycle;Signal;HPM_P1;HPM_P2
2023/12/29 00:00:25;;;;;;;7.77;3.30;;;;;;;5.86;74.79;96101.38;5132381;27;20446;-52
2023/12/29 00:02:53;;;;;;;1.87;1.50;;;;;;;5.76;75.67;96107.13;5132721;27;20464;-52
2023/12/29 00:05:22;;;;;;;2.10;1.27;;;;;;;5.87;76.16;96105.63;5132031;27;20426;-51
2023/12/29 00:07:52;;;;;;;4.30;3.80;;;;;;;5.73;75.53;96103.09;5132022;27;20876;-52
2023/12/29 00:10:21;;;;;;;6.47;2.37;;;;;;;5.59;76.56;96106.09;5106465;27;20434;-51
2023/12/29 00:12:50;;;;;;;12.13;2.03;;;;;;;5.31;79.70;96105.78;5132357;27;20525;-51
2023/12/29 00:15:19;;;;;;;2.50;1.97;;;;;;;5.36;80.11;96100.66;5132482;27;20930;-52
2023/12/29 00:17:48;;;;;;;5.43;2.13;;;;;;;5.42;79.00;96120.81;5131803;27;20527;-52
2023/12/29 00:20:17;;;;;;;3.17;2.90;;;;;;;5.43;79.07;96114.53;5132439;27;20431;-52
2023/12/29 00:23:06;;;;;;;5.03;3.30;;;;;;;5.38;79.79;96120.47;5131905;27;20442;-52
2023/12/29 00:25:37;;;;;;;1.97;1.87;;;;;;;5.25;79.36;96112.69;5132456;28;20438;-52
2023/12/29 00:28:06;;;;;;;7.03;2.93;;;;;;;5.24;80.52;96118.97;5106182;28;20861;-52
2023/12/29 00:30:40;;;;;;;5.00;2.57;;;;;;;5.19;79.93;96112.75;5131497;28;20518;-52
2023/12/29 00:33:27;;;;;;;7.70;4.07;;;;;;;5.07;80.54;96086.38;5132346;27;20524;-52
2023/12/29 00:35:56;;;;;;;4.43;3.93;;;;;;;5.05;81.30;96091.84;5131622;27;20953;-52
2023/12/29 00:38:27;;;;;;;4.90;2.83;;;;;;;5.16;80.66;96100.84;5132094;28;20517;-52
2023/12/29 00:40:56;;;;;;;2.10;2.00;;;;;;;5.08;79.74;96095.88;5131932;28;20442;-52
2023/12/29 00:43:24;;;;;;;11.13;2.03;;;;;;;5.09;79.25;96095.66;5131893;28;20441;-52
2023/12/29 00:45:53;;;;;;;1.30;1.30;;;;;;;5.13;79.65;96096.81;5105288;28;20442;-52
2023/12/29 00:48:21;;;;;;;2.00;1.90;;;;;;;5.13;80.19;96086.31;5131452;27;20956;-52
2023/12/29 00:50:50;;;;;;;1.53;0.80;;;;;;;5.05;80.78;96076.09;5131712;28;20433;-52
2023/12/29 00:53:19;;;;;;;1.83;1.73;;;;;;;4.75;80.59;96020.00;5131688;27;20442;-53
2023/12/29 00:55:49;;;;;;;6.70;1.80;;;;;;;5.12;80.28;96087.34;5131935;28;20947;-51
2023/12/29 00:58:17;;;;;;;5.67;2.30;;;;;;;4.99;81.63;96084.81;5132019;27;20817;-51
2023/12/29 01:00:46;;;;;;;1.93;1.83;;;;;;;4.98;82.30;96085.84;5131528;28;20515;-51
2023/12/29 01:03:14;;;;;;;1.90;1.70;;;;;;;4.69;80.98;96028.72;5132413;27;20438;-52
2023/12/29 01:05:43;;;;;;;2.57;1.37;;;;;;;5.11;81.01;96082.28;5135442;27;21075;-51
2023/12/29 01:08:12;;;;;;;2.00;0.70;;;;;;;5.03;81.00;96074.69;5135355;27;20954;-51
2023/12/29 01:10:40;;;;;;;1.30;1.20;;;;;;;5.02;81.21;96073.06;5135284;27;20434;-51
2023/12/29 01:13:10;;;;;;;2.00;1.90;;;;;;;4.98;81.28;96088.47;5135427;27;20491;-52
2023/12/29 01:15:40;;;;;;;1.90;1.47;;;;;;;4.79;84.94;96078.94;5135184;27;20438;-51
2023/12/29 01:18:09;;;;;;;3.63;1.53;;;;;;;4.88;83.55;96082.88;5134778;27;20466;-51
2023/12/29 01:20:39;;;;;;;2.07;1.97;;;;;;;4.95;83.19;96082.84;5134954;27;20926;-51
2023/12/29 01:23:07;;;;;;;6.90;2.47;;;;;;;4.86;83.75;96087.56;5135618;27;20470;-51
2023/12/29 01:25:36;;;;;;;3.00;2.83;;;;;;;4.84;84.38;96076.47;5135496;27;20442;-51
2023/12/29 01:28:05;;;;;;;1.57;1.13;;;;;;;4.83;84.45;96084.56;5135582;27;20463;-51
2023/12/29 01:30:35;;;;;;;0.93;0.93;;;;;;;4.88;83.29;96082.88;5135258;27;20438;-52
2023/12/29 01:33:04;;;;;;;2.17;1.53;;;;;;;4.89;82.20;96078.44;5135511;27;20457;-51
2023/12/29 01:35:33;;;;;;;4.07;1.50;;;;;;;4.86;82.01;96068.34;5125127;27;20438;-52
2023/12/29 01:38:03;;;;;;;2.10;2.00;;;;;;;4.84;81.61;96065.16;5134143;27;20477;-51
2023/12/29 01:40:31;;;;;;;2.23;2.00;;;;;;;4.77;82.11;96064.41;5135003;27;20446;-51
2023/12/29 01:43:00;;;;;;;3.53;1.00;;;;;;;4.70;82.18;96059.22;5134669;27;20435;-51
2023/12/29 01:45:28;;;;;;;1.43;1.33;;;;;;;4.66;82.94;96058.03;5134546;27;20513;-52
2023/12/29 01:47:59;;;;;;;1.87;1.77;;;;;;;4.37;84.34;96048.97;5135486;27;20465;-51
2023/12/29 01:50:28;;;;;;;0.93;0.93;;;;;;;4.56;86.40;96060.31;5135054;27;20951;-52
2023/12/29 01:52:57;;;;;;;2.53;2.53;;;;;;;4.64;86.24;96060.06;5135141;27;20889;-51
2023/12/29 01:55:27;;;;;;;1.90;0.70;;;;;;;4.74;85.26;96060.38;5134862;27;20788;-52
2023/12/29 01:57:57;;;;;;;0.87;0.87;;;;;;;4.80;84.17;96061.34;5135457;27;20442;-53
2023/12/29 02:00:27;;;;;;;0.60;0.60;;;;;;;4.85;83.64;96051.81;5123968;27;20442;-51
2023/12/29 02:02:58;;;;;;;1.03;0.90;;;;;;;4.80;83.11;96051.66;5134581;27;20816;-51
2023/12/29 02:05:29;;;;;;;0.60;0.60;;;;;;;4.78;82.92;96047.66;5108781;27;20496;-52
2023/12/29 02:07:58;;;;;;;1.90;1.63;;;;;;;4.76;83.65;96052.28;5134360;27;20499;-52
2023/12/29 02:10:27;;;;;;;0.93;0.93;;;;;;;4.80;82.46;96046.41;5135248;27;20491;-52
2023/12/29 02:12:59;;;;;;;0.57;0.57;;;;;;;4.77;82.79;96038.97;5134250;27;20485;-53
2023/12/29 02:15:28;;;;;;;1.00;0.60;;;;;;;4.78;83.26;96040.53;5133761;27;20445;-53
2023/12/29 02:18:03;;;;;;;2.77;0.80;;;;;;;4.77;83.38;96038.97;5134312;27;20495;-53
2023/12/29 02:20:32;;;;;;;1.50;0.60;;;;;;;4.83;83.04;96042.56;5134745;27;20440;-52
2023/12/29 02:23:01;;;;;;;1.50;1.10;;;;;;;4.74;83.20;96054.31;5134061;27;20442;-52
2023/12/29 02:25:31;;;;;;;0.87;0.87;;;;;;;4.77;83.64;96043.41;5134485;27;20438;-52
2023/12/29 02:28:05;;;;;;;1.10;0.83;;;;;;;4.70;83.28;96035.59;5129461;27;20434;-51
2023/12/29 02:30:39;;;;;;;2.07;1.13;;;;;;;4.66;84.83;96047.53;5133209;27;20487;-51
2023/12/29 02:33:14;;;;;;;2.20;1.87;;;;;;;4.72;84.19;96048.50;5124999;27;20435;-52
2023/12/29 02:35:46;;;;;;;0.73;0.73;;;;;;;4.72;84.16;96033.53;5130282;27;20471;-52
2023/12/29 02:38:15;;;;;;;0.60;0.60;;;;;;;4.69;83.11;96038.41;5134176;27;20438;-52
2023/12/29 02:40:45;;;;;;;4.10;0.93;;;;;;;4.74;82.39;96039.38;5133973;27;20435;-52
2023/12/29 02:43:13;;;;;;;0.90;0.83;;;;;;;4.53;82.61;96017.97;5134459;27;20465;-52
2023/12/29 02:45:42;;;;;;;0.77;0.60;;;;;;;4.39;82.77;96001.50;5133906;27;20438;-52
2023/12/29 02:48:11;;;;;;;1.17;0.90;;;;;;;4.42;82.99;96016.81;5133837;27;20822;-52
2023/12/29 02:50:40;;;;;;;0.90;0.50;;;;;;;4.46;83.43;96020.63;5133729;27;20437;-52
2023/12/29 02:53:10;;;;;;;1.10;1.00;;;;;;;4.48;83.01;96018.56;5133911;27;20435;-52
2023/12/29 02:55:38;;;;;;;2.83;0.83;;;;;;;4.42;83.47;96016.81;5107379;27;20869;-52
2023/12/29 02:58:09;;;;;;;0.43;0.43;;;;;;;4.36;83.96;96009.78;5132990;27;20438;-51
2023/12/29 03:00:38;;;;;;;1.17;1.07;;;;;;;4.35;85.38;96014.25;5133655;27;20442;-51
2023/12/29 03:03:07;;;;;;;0.70;0.50;;;;;;;3.83;85.17;95928.88;5133243;27;20822;-51
2023/12/29 03:05:35;;;;;;;0.40;0.30;;;;;;;4.15;85.01;95968.97;5133916;27;20453;-51
2023/12/29 03:08:06;;;;;;;1.43;1.10;;;;;;;4.42;84.53;96001.88;5132759;27;20438;-52
2023/12/29 03:10:34;;;;;;;2.00;1.03;;;;;;;4.37;84.01;96004.34;5133631;27;20491;-51
2023/12/29 03:13:04;;;;;;;1.83;1.37;;;;;;;4.36;83.17;96001.94;5133240;27;20923;-52
2023/12/29 03:15:34;;;;;;;0.50;0.40;;;;;;;4.34;83.38;96003.97;5133518;27;20508;-52
2023/12/29 03:18:02;;;;;;;0.73;0.73;;;;;;;4.43;83.39;96010.53;5132873;27;20439;-52
2023/12/29 03:20:32;;;;;;;0.87;0.87;;;;;;;4.03;82.96;95951.50;5133566;27;20539;-52
2023/12/29 03:23:01;;;;;;;0.60;0.43;;;;;;;4.38;83.30;96008.56;5133059;27;20442;-52
2023/12/29 03:25:29;;;;;;;1.00;0.60;;;;;;;4.25;83.93;95985.03;5133049;27;20487;-52
2023/12/29 03:27:58;;;;;;;0.50;0.50;;;;;;;4.35;83.73;96009.00;5133399;27;20427;-52
2023/12/29 03:30:27;;;;;;;1.63;0.67;;;;;;;4.29;83.62;95995.94;5133266;27;20817;-52
2023/12/29 03:32:57;;;;;;;1.50;1.40;;;;;;;4.27;83.87;95992.72;5106841;27;20461;-52
2023/12/29 03:35:27;;;;;;;0.73;0.73;;;;;;;4.35;83.27;95982.75;5132817;27;20465;-52
2023/12/29 03:37:55;;;;;;;0.80;0.77;;;;;;;4.48;81.93;95992.34;5132954;27;20490;-52
2023/12/29 03:40:24;;;;;;;0.50;0.50;;;;;;;4.41;82.63;95984.53;5132475;27;20474;-52
2023/12/29 03:42:52;;;;;;;2.07;0.87;;;;;;;4.36;83.77;95986.19;5132882;27;20442;-52
2023/12/29 03:45:21;;;;;;;0.80;0.50;;;;;;;4.24;83.25;95978.22;5132382;27;20499;-52
2023/12/29 03:47:49;;;;;;;1.33;1.23;;;;;;;3.95;86.35;95989.28;5132938;27;20430;-52
2023/12/29 03:50:20;;;;;;;2.03;1.43;;;;;;;3.97;89.12;95996.97;5132995;27;20453;-52
2023/12/29 03:52:48;;;;;;;3.07;1.87;;;;;;;3.93;89.36;96001.00;5132487;27;20473;-52
2023/12/29 03:55:17;;;;;;;3.40;1.50;;;;;;;3.76;91.01;96008.56;5132660;27;20457;-52
2023/12/29 03:57:46;;;;;;;1.03;0.93;;;;;;;3.46;91.62;96008.31;5132730;27;20442;-52
2023/12/29 04:00:15;;;;;;;2.60;2.17;;;;;;;3.05;96.38;96010.44;5132905;27;20466;-52
2023/12/29 04:02:44;;;;;;;1.33;1.23;;;;;;;2.76;98.00;96013.53;5132539;27;20931;-52
2023/12/29 04:05:12;;;;;;;2.10;1.47;;;;;;;2.68;97.24;95998.03;5132016;27;20439;-52
2023/12/29 04:07:42;;;;;;;3.93;2.20;;;;;;;2.50;97.81;96012.53;5132976;27;20435;-52
2023/12/29 04:10:11;;;;;;;1.10;1.00;;;;;;;2.58;98.71;96008.94;5131630;27;20442;-52
2023/12/29 04:12:40;;;;;;;4.67;3.57;;;;;;;2.92;95.94;96013.09;5132689;27;20435;-52
2023/12/29 04:15:09;;;;;;;4.33;2.10;;;;;;;2.98;93.34;95988.72;5132368;27;20443;-52
2023/12/29 04:17:38;;;;;;;9.50;2.70;;;;;;;3.25;93.65;96032.16;5132251;27;20498;-52
2023/12/29 04:20:08;;;;;;;5.53;2.63;;;;;;;3.19;95.32;96025.91;5132337;27;20512;-52
2023/12/29 04:22:36;;;;;;;3.33;1.57;;;;;;;3.32;94.46;96032.94;5132220;27;20439;-52
2023/12/29 04:25:07;;;;;;;2.20;1.20;;;;;;;3.31;94.04;96039.19;5132586;27;20430;-52
2023/12/29 04:27:36;;;;;;;0.60;0.60;;;;;;;3.43;93.16;96034.94;5132004;28;20559;-52
2023/12/29 04:30:05;;;;;;;1.90;1.80;;;;;;;3.40;92.26;96037.94;5131830;28;20478;-52
2023/12/29 04:32:34;;;;;;;0.50;0.47;;;;;;;3.43;92.17;96032.31;5131865;27;20441;-52
2023/12/29 04:35:03;;;;;;;15.40;1.73;;;;;;;3.40;90.74;96030.09;5131586;27;20452;-52
2023/12/29 04:37:31;;;;;;;6.73;0.93;;;;;;;3.36;92.26;96030.72;5131662;27;20445;-52
2023/12/29 04:40:00;;;;;;;1.67;0.80;;;;;;;3.35;92.43;96027.28;5136430;27;20481;-52
2023/12/29 04:42:30;;;;;;;1.87;1.77;;;;;;;2.99;96.00;96034.81;5136210;27;20433;-52
2023/12/29 04:44:59;;;;;;;3.13;2.83;;;;;;;3.23;95.18;96034.19;5135999;27;20449;-52
2023/12/29 04:47:27;;;;;;;1.20;1.10;;;;;;;3.28;92.83;96025.69;5135924;27;20446;-52
2023/12/29 04:49:56;;;;;;;0.90;0.90;;;;;;;3.25;94.39;96026.91;5135972;27;20534;-52
2023/12/29 04:52:25;;;;;;;7.60;1.63;;;;;;;3.41;92.27;96026.47;5136036;27;20466;-52
2023/12/29 04:54:53;;;;;;;2.50;1.53;;;;;;;3.40;91.16;96017.00;5136212;27;20871;-52
2023/12/29 04:57:22;;;;;;;3.50;1.30;;;;;;;3.39;90.21;96023.22;5134883;27;20438;-52
2023/12/29 04:59:52;;;;;;;2.87;1.73;;;;;;;3.33;89.49;96003.13;5136102;27;20540;-52
2023/12/29 05:02:21;;;;;;;6.63;2.10;;;;;;;3.46;88.98;96024.03;5135984;27;20442;-52
2023/12/29 05:04:49;;;;;;;4.20;0.70;;;;;;;3.51;88.11;96026.84;5135943;27;20525;-52
2023/12/29 05:07:18;;;;;;;3.03;1.80;;;;;;;3.50;86.83;96030.47;5136390;27;20469;-52
2023/12/29 05:09:47;;;;;;;1.43;1.33;;;;;;;3.42;87.92;96033.31;5135286;27;20477;-51
2023/12/29 05:12:16;;;;;;;1.33;1.20;;;;;;;3.42;87.28;96038.53;5136284;27;20477;-52
2023/12/29 05:14:44;;;;;;;2.13;2.03;;;;;;;3.05;87.97;95987.69;5135689;27;20434;-52
2023/12/29 05:17:14;;;;;;;4.00;3.07;;;;;;;3.38;87.48;96032.13;5135866;27;20446;-52
2023/12/29 05:19:43;;;;;;;13.53;4.30;;;;;;;3.30;87.13;96024.47;5135654;27;20435;-52
2023/12/29 05:22:15;;;;;;;3.20;2.50;;;;;;;3.39;88.07;96038.16;5134897;27;20439;-52
2023/12/29 05:24:44;;;;;;;9.83;4.50;;;;;;;3.35;87.74;96036.97;5135378;27;20467;-52
2023/12/29 05:27:13;;;;;;;5.60;1.80;;;;;;;3.16;87.80;96028.16;5135329;27;20521;-52
2023/12/29 05:29:42;;;;;;;3.43;2.63;;;;;;;3.35;86.82;96039.56;5108719;27;20839;-52
2023/12/29 05:32:11;;;;;;;1.43;1.43;;;;;;;3.31;86.47;96033.97;5134940;27;20491;-53
2023/12/29 05:34:41;;;;;;;2.00;1.90;;;;;;;3.26;87.86;96032.97;5135560;27;20534;-52
2023/12/29 05:37:10;;;;;;;4.27;2.53;;;;;;;3.22;88.98;96027.31;5128956;27;20430;-52
2023/12/29 05:39:38;;;;;;;6.30;1.47;;;;;;;3.19;88.34;96022.50;5119985;27;20438;-52
2023/12/29 05:42:07;;;;;;;8.73;2.33;;;;;;;3.27;87.87;96027.50;5135114;27;20473;-54
2023/12/29 05:44:37;;;;;;;3.50;1.27;;;;;;;3.22;87.89;96035.19;5135417;27;20434;-52
2023/12/29 05:47:06;;;;;;;6.53;2.50;;;;;;;3.17;87.78;96029.75;5134976;27;20446;-51
2023/12/29 05:49:39;;;;;;;5.13;2.17;;;;;;;3.17;87.20;96032.38;5108870;27;20435;-52
2023/12/29 05:52:09;;;;;;;6.00;4.77;;;;;;;3.14;86.77;96036.22;5134573;27;20485;-52
2023/12/29 05:54:38;;;;;;;2.87;2.60;;;;;;;3.13;86.65;96041.66;5135203;27;20550;-51
2023/12/29 05:57:07;;;;;;;2.87;2.67;;;;;;;3.07;86.15;96018.91;5135019;27;20465;-52
2023/12/29 05:59:36;;;;;;;5.10;3.73;;;;;;;3.27;85.66;96038.00;5134966;27;20442;-52
2023/12/29 06:02:04;;;;;;;4.70;2.40;;;;;;;3.37;85.23;96038.38;5134929;27;20470;-53
2023/12/29 06:04:33;;;;;;;2.40;2.30;;;;;;;3.31;85.69;96033.16;5134901;27;20518;-53
2023/12/29 06:07:01;;;;;;;4.03;2.17;;;;;;;3.30;87.69;96031.53;5134213;27;20868;-53
2023/12/29 06:09:32;;;;;;;5.83;3.10;;;;;;;3.25;85.96;96013.00;5134650;27;20930;-52
2023/12/29 06:12:00;;;;;;;4.30;2.47;;;;;;;3.29;85.45;96009.75;5134142;27;20442;-52
2023/12/29 06:14:29;;;;;;;2.83;2.63;;;;;;;3.45;85.16;96022.41;5134620;27;20442;-52
2023/12/29 06:16:58;;;;;;;10.10;3.50;;;;;;;3.37;85.19;95998.25;5134700;27;20814;-53
2023/12/29 06:19:28;;;;;;;5.43;3.23;;;;;;;3.58;85.54;96011.06;5134308;27;20446;-52
2023/12/29 06:21:57;;;;;;;4.07;2.97;;;;;;;3.67;85.78;95996.69;5134641;27;20492;-53
2023/12/29 06:24:25;;;;;;;3.07;2.87;;;;;;;4.32;87.12;96019.13;5134368;27;20438;-52
2023/12/29 06:26:55;;;;;;;8.93;3.17;;;;;;;4.32;83.61;96016.50;5134801;27;20434;-52
2023/12/29 06:29:24;;;;;;;4.30;3.30;;;;;;;4.09;83.66;96022.31;5134456;27;20431;-53
2023/12/29 06:31:52;;;;;;;4.17;3.90;;;;;;;3.65;83.89;96022.31;5133215;27;20442;-52
2023/12/29 06:34:21;;;;;;;3.47;3.17;;;;;;;1.98;84.51;95845.19;5115613;27;20444;-52
2023/12/29 06:36:51;;;;;;;6.20;4.63;;;;;;;2.68;88.60;96029.44;5126935;27;20430;-52
2023/12/29 06:39:19;;;;;;;5.83;5.40;;;;;;;2.58;91.16;96028.03;5123083;27;21158;-52
2023/12/29 06:41:48;;;;;;;8.30;5.57;;;;;;;2.70;91.71;96027.44;5127856;27;20589;-52
2023/12/29 06:44:18;;;;;;;5.63;3.10;;;;;;;2.93;87.91;96033.84;5127549;27;20930;-52
2023/12/29 06:46:46;;;;;;;1.90;1.67;;;;;;;3.08;85.88;96038.84;5123027;27;20442;-53
2023/12/29 06:49:15;;;;;;;1.97;1.87;;;;;;;3.32;83.22;96032.94;5134071;27;20435;-51
2023/12/29 06:51:44;;;;;;;0.83;0.83;;;;;;;2.91;83.87;96051.56;5133933;27;20840;-52
2023/12/29 06:54:13;;;;;;;1.03;1.03;;;;;;;3.55;81.84;96042.94;5133583;27;20525;-52
2023/12/29 06:56:41;;;;;;;1.13;0.90;;;;;;;3.38;81.22;96021.66;5133523;27;20431;-53
2023/12/29 06:59:10;;;;;;;1.93;1.33;;;;;;;3.81;79.99;96038.41;5125417;27;20445;-53
2023/12/29 07:01:41;;;;;;;0.63;0.63;;;;;;;4.13;78.62;96030.53;5123823;27;20982;-52
2023/12/29 07:04:11;;;;;;;1.00;1.00;;;;;;;4.45;77.13;96030.31;5133908;27;20440;-52
2023/12/29 07:06:40;;;;;;;1.07;0.37;;;;;;;4.18;76.52;96025.47;5133964;27;20518;-52
2023/12/29 07:09:09;;;;;;;0.40;0.37;;;;;;;3.73;77.58;96020.28;5121259;27;20518;-52
2023/12/29 07:11:38;;;;;;;2.90;1.20;;;;;;;3.77;79.47;96041.63;5117062;27;20824;-52
2023/12/29 07:14:06;;;;;;;2.40;2.20;;;;;;;3.62;80.88;95992.09;5126680;27;20443;-53
2023/12/29 07:16:35;;;;;;;1.53;1.40;;;;;;;4.25;80.83;96037.53;5126447;27;20430;-53
2023/12/29 07:19:05;;;;;;;4.80;3.10;;;;;;;4.76;77.20;96015.53;5133647;27;20507;-53
2023/12/29 07:21:34;;;;;;;3.60;2.50;;;;;;;5.49;75.65;96030.34;5132491;27;20470;-52
2023/12/29 07:24:02;;;;;;;1.53;1.50;;;;;;;5.62;75.42;96021.47;5133096;27;20439;-53
2023/12/29 07:26:33;;;;;;;6.27;4.83;;;;;;;5.71;73.96;95988.63;5133655;27;20446;-53
2023/12/29 07:29:05;;;;;;;2.63;2.40;;;;;;;6.48;73.01;96026.44;5132710;27;20448;-53
2023/12/29 07:31:34;;;;;;;4.33;4.03;;;;;;;6.89;72.08;96021.91;5132558;27;20930;-53
2023/12/29 07:34:03;;;;;;;5.33;4.90;;;;;;;7.33;70.82;96004.69;5116412;27;20470;-52
2023/12/29 07:36:33;;;;;;;7.00;6.33;;;;;;;7.60;68.69;96005.78;5126525;27;20438;-53
2023/12/29 07:39:02;;;;;;;4.27;3.90;;;;;;;7.91;67.26;96006.38;5132846;27;20430;-53
2023/12/29 07:41:32;;;;;;;4.07;3.87;;;;;;;8.38;64.90;95996.41;5132701;27;20466;-53
2023/12/29 07:44:01;;;;;;;9.20;6.30;;;;;;;8.47;64.94;95995.78;5133176;27;20529;-51
2023/12/29 07:46:29;;;;;;;4.23;4.03;;;;;;;9.37;62.77;95995.53;5132236;27;20449;-52
2023/12/29 07:48:58;;;;;;;6.73;4.80;;;;;;;9.70;62.01;95997.28;5132097;27;20445;-53
2023/12/29 07:51:27;;;;;;;3.63;3.43;;;;;;;10.38;60.81;95989.56;5132026;27;20615;-53
2023/12/29 07:53:57;;;;;;;5.87;3.47;;;;;;;10.65;58.41;95985.03;5132659;27;20438;-53
2023/12/29 07:56:26;;;;;;;4.33;4.00;;;;;;;10.90;57.50;95995.03;5132388;27;20447;-53
2023/12/29 07:58:54;;;;;;;6.87;4.90;;;;;;;10.98;56.50;95991.13;5132812;27;20473;-53
2023/12/29 08:01:23;;;;;;;19.50;4.67;;;;;;;11.54;56.25;95986.91;5127444;27;20499;-54
2023/12/29 08:03:51;;;;;;;4.57;4.13;;;;;;;11.61;54.34;95990.16;5124848;27;20435;-54
2023/12/29 08:06:20;;;;;;;8.00;5.00;;;;;;;11.67;53.97;95989.91;5126372;27;20435;-54
2023/12/29 08:08:49;;;;;;;3.30;3.10;;;;;;;11.52;55.89;95976.56;5112118;28;20439;-54
2023/12/29 08:11:19;;;;;;;5.43;3.30;;;;;;;11.20;55.73;95999.75;5104433;27;20447;-54
2023/12/29 08:13:49;;;;;;;2.80;2.70;;;;;;;11.43;56.37;96000.13;5124771;27;20435;-53
2023/12/29 08:16:18;;;;;;;6.60;4.93;;;;;;;11.53;56.08;95999.41;5112136;28;20474;-53
2023/12/29 08:18:48;;;;;;;5.43;5.00;;;;;;;11.48;54.17;95997.50;5112229;28;20427;-53
2023/12/29 08:21:20;;;;;;;4.60;3.83;;;;;;;12.00;52.96;95994.84;5124502;27;20438;-52
2023/12/29 08:23:49;;;;;;;5.23;4.93;;;;;;;12.29;52.73;96000.50;5132985;27;20521;-52
2023/12/29 08:26:20;;;;;;;2.00;1.90;;;;;;;12.48;51.83;96000.78;5132363;27;20442;-52
2023/12/29 08:28:48;;;;;;;5.37;4.07;;;;;;;12.54;51.75;96005.06;5132467;28;20438;-52
2023/12/29 08:31:17;;;;;;;4.07;3.57;;;;;;;12.81;51.41;95994.16;5131076;28;20439;-53
2023/12/29 08:33:46;;;;;;;5.70;3.80;;;;;;;12.98;51.08;95981.41;5132277;28;20430;-53
2023/12/29 08:36:15;;;;;;;3.17;2.90;;;;;;;13.33;50.57;95981.38;5103881;28;20480;-53
2023/12/29 08:38:43;;;;;;;4.03;2.93;;;;;;;13.59;49.54;95972.22;5129692;27;20435;-54
2023/12/29 08:41:14;;;;;;;2.57;2.37;;;;;;;13.93;49.12;95975.84;5132022;27;20495;-55
2023/12/29 08:44:03;;;;;;;3.90;3.03;;;;;;;14.28;48.21;95976.72;5131672;27;20446;-54
2023/12/29 08:46:32;;;;;;;11.93;1.83;;;;;;;14.41;48.11;95963.59;5109821;28;20438;-55
2023/12/29 08:49:01;;;;;;;3.93;2.57;;;;;;;14.84;47.36;95969.94;5132251;27;20446;-54
2023/12/29 08:51:30;;;;;;;2.57;2.23;;;;;;;14.60;47.21;95964.50;5132036;27;20516;-54
2023/12/29 08:53:59;;;;;;;4.60;2.60;;;;;;;14.74;47.67;95956.69;5131218;27;20533;-54
2023/12/29 08:56:29;;;;;;;5.47;4.70;;;;;;;14.66;47.68;95967.94;5132422;27;20771;-54
2023/12/29 08:58:57;;;;;;;4.60;3.53;;;;;;;15.40;46.74;95942.69;5131305;27;20446;-55
2023/12/29 09:01:26;;;;;;;6.20;3.90;;;;;;;15.15;45.47;95959.78;5131735;27;20439;-57
2023/12/29 09:03:55;;;;;;;6.33;5.70;;;;;;;15.04;45.94;95964.41;5131002;28;20491;-54
2023/12/29 09:06:24;;;;;;;4.03;3.73;;;;;;;14.73;46.67;95957.75;5132046;27;20968;-53
2023/12/29 09:08:52;;;;;;;3.60;3.40;;;;;;;14.94;46.61;95937.81;5131543;28;20522;-52
2023/12/29 09:11:21;;;;;;;3.07;1.60;;;;;;;15.47;46.89;95953.88;5123386;27;20442;-51
2023/12/29 09:13:50;;;;;;;1.90;1.80;;;;;;;15.93;44.79;95933.53;5131705;27;20469;-51
2023/12/29 09:16:18;;;;;;;1.70;1.60;;;;;;;15.94;44.20;95935.09;5131336;27;20437;-52
2023/12/29 09:18:48;;;;;;;1.70;1.60;;;;;;;15.93;43.71;95938.88;5131176;28;20478;-52
2023/12/29 09:21:17;;;;;;;4.93;2.90;;;;;;;15.81;44.17;95943.84;5132436;28;20442;-52
2023/12/29 09:23:47;;;;;;;2.43;2.23;;;;;;;15.74;43.85;95936.16;5132567;27;20531;-52
2023/12/29 09:26:17;;;;;;;3.17;2.50;;;;;;;15.84;44.27;95937.91;5135945;27;20474;-52
2023/12/29 09:28:46;;;;;;;1.70;1.60;;;;;;;16.31;43.46;95935.16;5122851;27;20464;-52
2023/12/29 09:31:15;;;;;;;2.47;2.27;;;;;;;16.51;43.23;95932.16;5114810;28;20492;-51
2023/12/29 09:33:44;;;;;;;2.30;2.20;;;;;;;17.01;42.26;95935.13;5116054;27;20922;-51
2023/12/29 09:36:15;;;;;;;3.43;1.50;;;;;;;16.58;42.02;95883.63;5135288;27;20466;-51
2023/12/29 09:38:46;;;;;;;1.90;1.80;;;;;;;17.06;41.67;95917.09;5132156;27;20927;-51
2023/12/29 09:41:16;;;;;;;2.87;2.60;;;;;;;17.01;41.67;95913.69;5115086;27;20435;-51
2023/12/29 09:43:48;;;;;;;1.50;1.40;;;;;;;17.45;42.43;95908.59;5114965;28;20518;-51
2023/12/29 09:46:19;;;;;;;3.37;2.57;;;;;;;18.10;40.77;95890.34;5114801;27;20435;-51
2023/12/29 09:48:48;;;;;;;5.43;2.03;;;;;;;17.19;42.13;95886.03;5115356;27;20435;-51
2023/12/29 09:51:22;;;;;;;2.17;2.03;;;;;;;17.15;42.52;95883.16;5114542;27;20510;-51
2023/12/29 09:53:51;;;;;;;2.20;2.10;;;;;;;17.58;42.67;95889.03;5127522;27;20450;-51
2023/12/29 09:56:20;;;;;;;2.20;1.90;;;;;;;17.39;42.04;95874.94;5124460;27;20442;-50
2023/12/29 09:58:51;;;;;;;7.27;2.83;;;;;;;17.81;41.76;95875.72;5134721;27;20434;-50
2023/12/29 10:01:21;;;;;;;2.30;2.20;;;;;;;17.90;40.40;95865.88;5127028;27;20477;-50
2023/12/29 10:03:50;;;;;;;4.00;3.50;;;;;;;17.64;41.36;95870.97;5118702;27;20867;-50
2023/12/29 10:06:25;;;;;;;2.00;1.43;;;;;;;18.32;40.96;95866.22;5122658;27;20806;-51
2023/12/29 10:08:57;;;;;;;2.80;2.57;;;;;;;19.05;40.39;95856.91;5135175;27;20444;-50
2023/12/29 10:11:27;;;;;;;2.40;2.20;;;;;;;19.55;39.50;95847.50;5134864;27;20498;-50
2023/12/29 10:14:00;;;;;;;2.23;1.87;;;;;;;19.28;39.70;95853.06;5134976;27;20462;-50
2023/12/29 10:16:42;;;;;;;4.43;1.93;;;;;;;19.59;37.83;95844.97;5134767;27;20999;-51
2023/12/29 10:19:18;;;;;;;2.97;2.50;;;;;;;20.21;37.98;95834.75;5134393;27;20434;-50
2023/12/29 10:21:58;;;;;;;2.63;2.30;;;;;;;20.39;36.67;95824.78;5133951;27;20938;-50
2023/12/29 10:24:27;;;;;;;2.20;2.00;;;;;;;20.51;36.83;95811.47;5133527;27;20562;-51
2023/12/29 10:26:56;;;;;;;5.50;1.27;;;;;;;21.52;35.53;95806.84;5134654;27;20491;-50
2023/12/29 10:29:27;;;;;;;2.27;1.00;;;;;;;21.40;34.57;95801.31;5129410;27;20506;-50
2023/12/29 10:31:56;;;;;;;1.23;1.13;;;;;;;21.07;34.93;95792.31;5126893;27;20442;-50
2023/12/29 10:34:28;;;;;;;1.23;1.10;;;;;;;19.99;36.65;95789.94;5134154;27;20946;-50
2023/12/29 10:37:01;;;;;;;6.60;1.80;;;;;;;19.37;37.57;95778.66;5132566;27;20439;-49
2023/12/29 10:39:30;;;;;;;1.30;1.20;;;;;;;18.69;38.41;95746.16;5134051;27;20439;-50
2023/12/29 10:42:06;;;;;;;3.27;1.87;;;;;;;19.03;37.83;95773.13;5132138;27;20521;-50
2023/12/29 10:44:35;;;;;;;4.73;2.00;;;;;;;18.92;37.99;95775.31;5134625;27;20586;-50
2023/12/29 10:47:10;;;;;;;1.30;1.10;;;;;;;18.76;38.41;95770.66;5133282;27;20656;-50
2023/12/29 10:49:40;;;;;;;1.80;1.70;;;;;;;19.34;37.84;95756.94;5134080;27;20995;-50
2023/12/29 10:52:15;;;;;;;0.87;0.73;;;;;;;21.27;35.57;95750.34;5132897;27;20462;-51
2023/12/29 10:54:44;;;;;;;1.20;1.17;;;;;;;21.53;35.06;95746.34;5133937;27;20827;-58
2023/12/29 10:57:13;;;;;;;1.33;1.23;;;;;;;20.95;34.85;95737.50;5107367;27;20435;-55
2023/12/29 10:59:42;;;;;;;1.10;0.93;;;;;;;21.59;34.51;95732.66;5133433;27;20442;-56
2023/12/29 11:02:15;;;;;;;1.40;1.30;;;;;;;22.18;33.17;95731.41;5133798;27;20438;-55
2023/12/29 11:04:44;;;;;;;0.70;0.60;;;;;;;22.10;32.67;95729.59;5133167;27;20507;-55
2023/12/29 11:07:14;;;;;;;1.27;1.20;;;;;;;22.22;32.82;95718.03;5133639;27;20477;-55
2023/12/29 11:09:44;;;;;;;9.90;1.23;;;;;;;21.99;32.11;95709.50;5133183;27;20438;-55
2023/12/29 11:12:13;;;;;;;3.40;2.40;;;;;;;21.64;33.12;95711.69;5133413;27;20799;-55
2023/12/29 11:14:46;;;;;;;12.00;1.13;;;;;;;20.16;35.67;95714.56;5133581;27;20450;-56
2023/12/29 11:17:16;;;;;;;1.10;1.10;;;;;;;21.21;34.17;95689.63;5133486;27;20431;-55
2023/12/29 11:19:48;;;;;;;0.70;0.60;;;;;;;21.78;32.43;95693.31;5133364;27;20509;-54
2023/12/29 11:22:19;;;;;;;0.70;0.60;;;;;;;21.81;33.22;95687.25;5133587;27;20435;-55
2023/12/29 11:24:48;;;;;;;0.87;0.87;;;;;;;22.23;32.88;95689.91;5131556;27;20474;-54
2023/12/29 11:27:18;;;;;;;0.70;0.70;;;;;;;22.96;32.24;95680.00;5133626;27;20541;-54
2023/12/29 11:29:47;;;;;;;9.90;2.13;;;;;;;22.96;33.19;95683.50;5133187;27;20438;-55
2023/12/29 11:32:23;;;;;;;1.17;1.07;;;;;;;22.65;32.11;95675.16;5133451;27;20442;-54
2023/12/29 11:34:57;;;;;;;1.03;1.03;;;;;;;22.96;33.36;95680.00;5133230;27;20445;-55
2023/12/29 11:37:38;;;;;;;1.10;1.00;;;;;;;22.50;32.09;95667.69;5133344;27;20426;-55
2023/12/29 11:40:18;;;;;;;0.83;0.83;;;;;;;22.81;31.56;95680.69;5132843;27;20449;-55
2023/12/29 11:42:50;;;;;;;0.93;0.87;;;;;;;22.77;31.86;95680.56;5133604;27;20785;-56
2023/12/29 11:45:27;;;;;;;0.50;0.40;;;;;;;23.35;31.19;95673.88;5132811;27;20445;-55
2023/12/29 11:47:56;;;;;;;7.80;0.60;;;;;;;24.14;30.64;95651.41;5123479;27;20431;-55
2023/12/29 11:50:30;;;;;;;0.63;0.60;;;;;;;22.97;31.33;95625.59;5118545;27;20992;-55